Time;durP1;ratioP1;P1;durP2;ratioP2;P2;SDS_P1;SDS_P2;PMS_P1;PMS_P2;Temp;Humidity;BMP_temperature;BMP_pressure;BME280_temperature;BME280_humidity;BME280_pressure;Samples;Min_cycle;Max_cycle;Signal;HPM_P1;HPM_P2
2022/08/16 00:00:15;;;;;;;8.77;6.70;;;19.70;79.90;;;;;;4992058;28;20049;-75
2022/08/16 00:02:41;;;;;;;8.57;7.55;;;19.50;80.00;;;;;;4991935;28;20031;-74
2022/08/16 00:05:09;;;;;;;7.53;6.75;;;19.60;80.50;;;;;;4992077;28;20429;-74
2022/08/16 00:07:35;;;;;;;9.40;7.65;;;19.60;80.30;;;;;;4991654;28;20258;-74
2022/08/16 00:10:02;;;;;;;7.68;6.88;;;19.60;80.20;;;;;;4992078;28;20077;-74
2022/08/16 00:12:29;;;;;;;10.15;7.40;;;19.60;80.00;;;;;;4991856;28;20023;-74
2022/08/16 00:14:57;;;;;;;7.95;6.93;;;19.60;79.70;;;;;;4992075;28;20023;-75
2022/08/16 00:17:24;;;;;;;8.63;7.00;;;19.50;79.50;;;;;;4991407;28;20092;-73
2022/08/16 00:19:49;;;;;;;7.65;6.95;;;19.40;79.80;;;;;;4992047;28;20088;-73
2022/08/16 00:22:15;;;;;;;8.25;7.38;;;19.30;79.90;;;;;;4991773;28;20026;-74
2022/08/16 00:24:42;;;;;;;10.50;7.40;;;19.20;80.20;;;;;;4992060;28;20469;-73
2022/08/16 00:27:07;;;;;;;8.55;7.68;;;19.20;80.30;;;;;;4991549;28;20496;-74
2022/08/16 00:29:33;;;;;;;7.93;7.13;;;19.20;80.30;;;;;;4991844;28;20101;-74
2022/08/16 00:32:02;;;;;;;8.05;6.97;;;19.20;80.20;;;;;;4991606;28;20385;-73
2022/08/16 00:34:28;;;;;;;11.45;7.65;;;19.20;80.20;;;;;;4991634;28;20014;-74
2022/08/16 00:36:54;;;;;;;10.20;7.65;;;19.20;80.30;;;;;;4991671;28;20026;-74
2022/08/16 00:39:19;;;;;;;8.02;7.18;;;19.20;80.70;;;;;;4991168;28;20550;-73
2022/08/16 00:41:48;;;;;;;9.23;7.63;;;19.20;80.50;;;;;;4991535;28;20030;-75
2022/08/16 00:44:16;;;;;;;9.02;7.63;;;19.10;80.80;;;;;;4991575;28;20053;-75
2022/08/16 00:47:04;;;;;;;8.95;8.02;;;19.10;80.90;;;;;;4991503;28;20076;-74
2022/08/16 00:49:32;;;;;;;8.27;7.43;;;19.00;80.50;;;;;;4991574;28;20042;-71
2022/08/16 00:51:58;;;;;;;10.98;8.30;;;19.00;80.60;;;;;;4991717;28;20045;-71
2022/08/16 00:54:28;;;;;;;8.48;7.15;;;19.00;80.70;;;;;;4991619;28;20029;-71
2022/08/16 00:56:55;;;;;;;9.30;7.80;;;19.00;81.10;;;;;;4991455;28;20513;-71
2022/08/16 00:59:24;;;;;;;9.43;8.40;;;18.90;81.80;;;;;;4990943;28;20027;-72
2022/08/16 01:01:50;;;;;;;10.77;8.15;;;18.90;81.90;;;;;;4992286;28;20053;-71
2022/08/16 01:04:20;;;;;;;11.10;7.90;;;18.90;82.20;;;;;;4994728;28;20022;-72
2022/08/16 01:06:47;;;;;;;9.40;8.50;;;18.90;82.40;;;;;;4994802;28;20026;-72
2022/08/16 01:09:13;;;;;;;11.68;8.68;;;18.90;82.80;;;;;;4994557;28;20110;-71
2022/08/16 01:11:39;;;;;;;11.50;7.85;;;18.80;82.90;;;;;;4994735;28;20042;-71
2022/08/16 01:14:11;;;;;;;11.88;8.48;;;18.80;82.90;;;;;;4994525;28;20410;-71
2022/08/16 01:16:38;;;;;;;9.15;8.25;;;18.70;83.00;;;;;;4994499;28;20026;-71
2022/08/16 01:19:20;;;;;;;9.23;8.30;;;18.70;83.30;;;;;;4994384;28;20037;-71
2022/08/16 01:22:04;;;;;;;10.52;8.55;;;18.70;83.50;;;;;;4994507;28;20143;-71
2022/08/16 01:24:42;;;;;;;10.15;9.13;;;18.70;83.60;;;;;;4981606;28;20169;-72
2022/08/16 01:27:13;;;;;;;9.90;9.00;;;18.60;84.00;;;;;;4993759;28;20489;-72
2022/08/16 01:29:48;;;;;;;11.93;9.27;;;18.60;84.30;;;;;;4994504;28;20033;-72
2022/08/16 01:32:14;;;;;;;11.13;9.50;;;18.50;84.60;;;;;;4994233;28;20570;-72
2022/08/16 01:34:39;;;;;;;11.43;9.75;;;18.50;84.60;;;;;;4994522;28;20054;-74
2022/08/16 01:37:09;;;;;;;10.50;9.38;;;18.50;84.70;;;;;;4993988;28;20096;-71
2022/08/16 01:39:35;;;;;;;12.15;9.15;;;18.50;84.80;;;;;;4992708;28;20061;-71
2022/08/16 01:42:03;;;;;;;10.35;9.30;;;18.50;84.90;;;;;;4994207;28;20026;-72
2022/08/16 01:44:29;;;;;;;10.80;9.68;;;18.50;84.90;;;;;;4981102;28;20025;-72
2022/08/16 01:46:56;;;;;;;10.48;9.30;;;18.50;85.20;;;;;;4993975;28;20022;-70
2022/08/16 01:49:33;;;;;;;12.07;10.13;;;18.50;85.10;;;;;;4992598;28;20029;-73
2022/08/16 01:52:05;;;;;;;12.13;10.82;;;18.40;85.50;;;;;;4994100;28;20435;-72
2022/08/16 01:54:30;;;;;;;12.27;10.85;;;18.40;86.00;;;;;;4994324;28;20132;-73
2022/08/16 01:56:57;;;;;;;11.63;10.43;;;18.40;86.10;;;;;;4994230;28;20065;-73
2022/08/16 01:59:23;;;;;;;12.98;11.63;;;18.30;86.20;;;;;;4994469;28;20022;-72
2022/08/16 02:01:50;;;;;;;15.48;11.43;;;18.20;86.50;;;;;;4995533;28;20114;-73
2022/08/16 02:04:18;;;;;;;13.90;12.45;;;18.20;86.70;;;;;;4995345;28;20022;-73
2022/08/16 02:06:44;;;;;;;12.80;11.10;;;18.30;87.20;;;;;;4996692;28;20230;-74
2022/08/16 02:09:11;;;;;;;14.35;10.77;;;18.30;87.00;;;;;;4992805;28;20085;-73
2022/08/16 02:11:38;;;;;;;13.05;11.57;;;18.30;86.60;;;;;;4993560;28;20026;-72
2022/08/16 02:14:05;;;;;;;15.27;11.55;;;18.20;86.60;;;;;;4993040;28;20469;-75
2022/08/16 02:16:31;;;;;;;12.73;11.43;;;18.20;86.50;;;;;;4993602;28;20038;-73
2022/08/16 02:18:58;;;;;;;13.95;11.32;;;18.20;86.50;;;;;;4993347;28;20037;-73
2022/08/16 02:21:24;;;;;;;12.35;11.10;;;18.30;86.70;;;;;;4993426;28;20085;-73
2022/08/16 02:23:49;;;;;;;16.10;12.63;;;18.20;86.80;;;;;;4993375;28;20072;-71
2022/08/16 02:26:15;;;;;;;12.88;11.50;;;18.10;86.90;;;;;;4993574;28;20087;-72
2022/08/16 02:28:42;;;;;;;15.88;12.38;;;18.10;87.00;;;;;;4992965;28;20029;-72
2022/08/16 02:31:11;;;;;;;15.55;12.15;;;18.10;86.80;;;;;;4993126;28;20504;-74
2022/08/16 02:33:37;;;;;;;15.55;12.13;;;18.00;86.80;;;;;;4993280;28;20103;-73
2022/08/16 02:36:04;;;;;;;14.48;11.80;;;18.00;86.80;;;;;;4992900;28;20030;-73
2022/08/16 02:38:31;;;;;;;14.77;13.18;;;18.00;87.00;;;;;;4991200;28;20029;-73
2022/08/16 02:40:59;;;;;;;14.38;12.88;;;18.00;87.20;;;;;;4993113;28;20022;-73
2022/08/16 02:43:27;;;;;;;16.40;12.95;;;18.00;87.10;;;;;;4993274;28;20553;-74
2022/08/16 02:45:54;;;;;;;14.45;12.95;;;18.10;87.70;;;;;;4992767;28;20436;-74
2022/08/16 02:48:20;;;;;;;16.27;14.57;;;18.20;87.80;;;;;;4992890;28;20061;-74
2022/08/16 02:50:46;;;;;;;14.90;13.40;;;18.10;88.10;;;;;;4992728;28;20428;-73
2022/08/16 02:53:12;;;;;;;14.85;13.32;;;18.20;87.90;;;;;;4992944;28;20014;-73
2022/08/16 02:55:37;;;;;;;17.63;14.55;;;18.20;87.90;;;;;;4992745;28;20480;-74
2022/08/16 02:58:04;;;;;;;15.27;13.73;;;18.20;87.70;;;;;;4992467;28;20469;-72
2022/08/16 03:00:30;;;;;;;15.27;13.68;;;18.20;87.80;;;;;;4991147;28;20038;-72
2022/08/16 03:02:56;;;;;;;15.63;13.95;;;18.20;88.00;;;;;;4992808;28;20106;-72
2022/08/16 03:05:22;;;;;;;21.77;16.33;;;18.10;88.10;;;;;;4992622;28;20041;-72
2022/08/16 03:07:48;;;;;;;60.75;39.38;;;18.10;88.10;;;;;;4992878;28;20045;-73
2022/08/16 03:10:13;;;;;;;48.45;31.30;;;18.00;88.10;;;;;;4992566;28;20593;-72
2022/08/16 03:12:42;;;;;;;16.45;12.85;;;18.00;88.10;;;;;;4992460;28;20105;-72
2022/08/16 03:15:09;;;;;;;14.63;11.93;;;18.00;87.80;;;;;;4992499;28;20430;-73
2022/08/16 03:17:35;;;;;;;13.88;12.38;;;17.90;87.70;;;;;;4992733;28;20101;-72
2022/08/16 03:20:02;;;;;;;18.77;15.27;;;17.90;87.90;;;;;;4992326;28;20559;-71
2022/08/16 03:22:28;;;;;;;323.83;154.88;;;17.80;88.30;;;;;;4992410;28;20026;-71
2022/08/16 03:24:55;;;;;;;14.95;13.45;;;17.80;88.40;;;;;;4991878;28;20096;-72
2022/08/16 03:27:21;;;;;;;20.23;13.63;;;17.80;88.40;;;;;;4990846;28;20026;-71
2022/08/16 03:29:46;;;;;;;17.75;13.93;;;17.80;88.20;;;;;;4991318;28;20385;-72
2022/08/16 03:32:12;;;;;;;330.15;211.40;;;17.70;88.30;;;;;;5015583;22;20177;-77
2022/08/16 03:34:38;;;;;;;60.20;35.67;;;17.70;88.30;;;;;;4990635;28;20112;-77
2022/08/16 03:37:03;;;;;;;16.17;13.18;;;17.70;88.20;;;;;;4990452;28;20026;-75
2022/08/16 03:39:29;;;;;;;18.17;14.43;;;17.70;88.10;;;;;;4992032;28;20453;-76
2022/08/16 03:41:55;;;;;;;14.13;12.73;;;17.60;88.00;;;;;;4992057;28;20113;-74
2022/08/16 03:44:21;;;;;;;21.25;14.63;;;17.60;88.00;;;;;;4991887;28;20477;-75
2022/08/16 03:46:46;;;;;;;15.07;13.00;;;17.50;88.70;;;;;;4992507;28;20381;-76
2022/08/16 03:49:12;;;;;;;14.82;13.10;;;17.60;88.50;;;;;;4991607;28;20026;-75
2022/08/16 03:51:40;;;;;;;16.60;13.27;;;17.60;88.40;;;;;;4991987;28;20030;-77
2022/08/16 03:54:06;;;;;;;13.32;12.02;;;17.50;88.00;;;;;;4990418;28;20086;-74
2022/08/16 03:56:32;;;;;;;16.20;12.52;;;17.50;88.00;;;;;;4991931;28;20053;-76
2022/08/16 03:58:59;;;;;;;16.63;12.48;;;17.50;87.90;;;;;;4991490;28;20030;-78
2022/08/16 04:01:25;;;;;;;15.02;12.38;;;17.50;87.80;;;;;;4991869;28;20153;-78
2022/08/16 04:03:52;;;;;;;13.50;12.10;;;17.60;87.90;;;;;;4991603;28;20549;-77
2022/08/16 04:06:18;;;;;;;14.00;11.20;;;17.60;87.70;;;;;;5013477;28;20030;-77
2022/08/16 04:08:43;;;;;;;14.35;12.55;;;17.60;87.40;;;;;;5016158;28;20038;-80
2022/08/16 04:11:09;;;;;;;15.63;12.32;;;17.60;87.30;;;;;;5015387;28;20061;-80
2022/08/16 04:13:34;;;;;;;14.73;13.18;;;17.60;87.60;;;;;;5006988;28;20023;-77
2022/08/16 04:16:01;;;;;;;14.88;13.15;;;17.50;87.70;;;;;;4992494;28;20114;-78
2022/08/16 04:18:28;;;;;;;17.80;13.68;;;17.50;87.90;;;;;;4992649;28;20022;-77
2022/08/16 04:20:53;;;;;;;14.30;12.60;;;17.60;87.70;;;;;;4992166;28;20022;-78
2022/08/16 04:23:20;;;;;;;14.63;12.32;;;17.80;87.20;;;;;;4992258;28;20026;-76
2022/08/16 04:25:46;;;;;;;15.50;10.80;;;18.00;86.70;;;;;;4998819;28;20046;-75
2022/08/16 04:28:12;;;;;;;12.55;10.57;;;18.10;86.30;;;;;;4991241;28;20116;-75
2022/08/16 04:30:38;;;;;;;11.88;10.20;;;18.30;85.20;;;;;;4990925;28;20081;-76
2022/08/16 04:33:05;;;;;;;11.45;10.25;;;18.60;84.40;;;;;;4990957;28;20040;-77
2022/08/16 04:35:31;;;;;;;10.70;9.55;;;19.00;83.20;;;;;;4990920;28;20061;-73
2022/08/16 04:37:57;;;;;;;10.63;9.43;;;19.90;80.00;;;;;;4995198;28;20050;-72
2022/08/16 04:40:24;;;;;;;10.50;8.38;;;20.90;78.10;;;;;;4995143;28;20058;-76
2022/08/16 04:42:50;;;;;;;11.10;7.70;;;21.70;73.20;;;;;;4995409;28;20030;-75
2022/08/16 04:45:16;;;;;;;10.48;8.50;;;22.10;70.00;;;;;;4995384;28;20084;-76
2022/08/16 04:47:42;;;;;;;10.68;8.10;;;21.80;70.90;;;;;;4998540;28;20400;-76
2022/08/16 04:50:21;;;;;;;12.52;9.13;;;21.90;71.90;;;;;;4994641;28;20026;-76
2022/08/16 04:52:49;;;;;;;11.80;8.20;;;22.30;69.80;;;;;;4994081;28;20034;-73
2022/08/16 04:55:21;;;;;;;13.13;8.23;;;22.60;68.40;;;;;;4992014;28;20047;-76
2022/08/16 04:57:50;;;;;;;9.23;7.25;;;23.50;67.00;;;;;;4980107;28;20026;-76
2022/08/16 05:00:19;;;;;;;11.45;7.20;;;24.80;61.90;;;;;;4993792;28;20117;-75
2022/08/16 05:02:48;;;;;;;9.98;6.32;;;25.80;58.00;;;;;;4994512;28;20023;-78
2022/08/16 05:05:14;;;;;;;9.38;6.68;;;26.60;56.50;;;;;;4995074;28;20026;-78
2022/08/16 05:07:39;;;;;;;8.32;6.03;;;27.00;54.60;;;;;;4992456;28;20049;-75
2022/08/16 05:10:07;;;;;;;10.25;5.80;;;27.40;53.90;;;;;;4993668;28;20034;-78
2022/08/16 05:12:33;;;;;;;7.72;6.10;;;28.10;52.00;;;;;;4994314;28;20064;-77
2022/08/16 05:14:59;;;;;;;7.70;6.40;;;29.30;48.10;;;;;;4993565;28;20034;-76
2022/08/16 05:17:25;;;;;;;7.05;6.32;;;29.50;46.40;;;;;;4993058;28;20027;-76
2022/08/16 05:19:51;;;;;;;14.63;6.80;;;29.20;47.20;;;;;;4996025;28;20065;-78
2022/08/16 05:22:17;;;;;;;7.38;6.28;;;27.50;50.20;;;;;;4994429;28;20487;-78
2022/08/16 05:24:43;;;;;;;12.00;6.53;;;27.00;52.30;;;;;;4994496;28;20026;-78
2022/08/16 05:27:08;;;;;;;10.25;6.57;;;27.70;50.90;;;;;;4993840;28;20037;-76
2022/08/16 05:29:35;;;;;;;11.27;6.45;;;28.60;48.10;;;;;;4993367;28;20080;-78
2022/08/16 05:32:00;;;;;;;5.93;5.18;;;29.00;46.70;;;;;;4994227;28;20044;-78
2022/08/16 05:34:27;;;;;;;12.80;6.30;;;28.50;47.10;;;;;;4994228;28;20101;-76
2022/08/16 05:36:56;;;;;;;8.50;5.35;;;28.60;46.90;;;;;;4995147;28;20113;-77
2022/08/16 05:39:22;;;;;;;7.07;5.10;;;28.40;46.60;;;;;;4994638;28;20022;-77
2022/08/16 05:41:49;;;;;;;7.82;5.93;;;27.70;48.70;;;;;;4994363;28;20035;-77
2022/08/16 05:44:15;;;;;;;12.73;6.40;;;27.80;50.00;;;;;;4994718;28;20387;-76
2022/08/16 05:46:43;;;;;;;11.60;6.68;;;27.80;50.20;;;;;;4993857;28;20078;-76
2022/08/16 05:49:15;;;;;;;10.43;6.47;;;28.20;49.40;;;;;;4992954;28;20022;-77
2022/08/16 05:51:45;;;;;;;6.88;5.82;;;29.20;46.60;;;;;;4994042;28;20026;-77
2022/08/16 05:54:13;;;;;;;7.00;5.35;;;30.50;43.70;;;;;;4992465;28;20026;-78
2022/08/16 05:56:40;;;;;;;9.43;5.10;;;31.30;42.20;;;;;;4992667;28;20552;-77
2022/08/16 05:59:07;;;;;;;11.55;5.75;;;31.30;40.90;;;;;;4993191;28;20506;-77
2022/08/16 06:01:37;;;;;;;8.90;5.75;;;30.90;42.20;;;;;;4993858;28;20050;-78
2022/08/16 06:04:03;;;;;;;8.02;5.57;;;31.10;41.50;;;;;;4993754;28;20068;-79
2022/08/16 06:06:28;;;;;;;8.02;5.75;;;31.20;42.00;;;;;;4993619;28;20034;-76
2022/08/16 06:08:54;;;;;;;9.02;5.80;;;31.90;40.80;;;;;;4993313;28;20026;-77
2022/08/16 06:11:23;;;;;;;9.25;6.00;;;31.20;41.60;;;;;;4993752;28;20025;-77
2022/08/16 06:13:48;;;;;;;15.73;6.55;;;31.10;42.10;;;;;;4993758;28;20022;-78
2022/08/16 06:16:14;;;;;;;10.27;6.65;;;31.10;42.10;;;;;;4992565;28;20018;-77
2022/08/16 06:18:43;;;;;;;9.85;6.40;;;30.20;44.00;;;;;;4992195;28;20062;-78
2022/08/16 06:21:10;;;;;;;7.55;5.50;;;29.60;45.70;;;;;;4993410;28;20025;-76
2022/08/16 06:23:38;;;;;;;9.10;5.72;;;29.70;44.50;;;;;;4993706;28;20397;-77
2022/08/16 06:26:05;;;;;;;15.18;5.68;;;31.40;42.40;;;;;;4993353;28;20173;-75
2022/08/16 06:28:31;;;;;;;9.25;4.70;;;33.50;37.80;;;;;;4992699;28;20388;-75
2022/08/16 06:30:57;;;;;;;5.82;3.65;;;34.70;35.60;;;;;;4991199;28;20084;-76
2022/08/16 06:33:23;;;;;;;5.70;4.10;;;36.00;33.40;;;;;;4992856;28;20108;-78
2022/08/16 06:36:08;;;;;;;11.50;4.22;;;37.30;31.50;;;;;;4991604;28;20122;-78
2022/08/16 06:38:36;;;;;;;7.70;4.90;;;37.90;29.40;;;;;;5000792;28;20105;-78
2022/08/16 06:41:06;;;;;;;3.53;2.88;;;38.80;29.30;;;;;;4993040;28;20031;-77
2022/08/16 06:43:32;;;;;;;4.88;3.28;;;38.30;28.20;;;;;;4992795;28;20030;-74
2022/08/16 06:45:59;;;;;;;8.55;5.57;;;38.40;27.80;;;;;;4993516;28;20558;-75
2022/08/16 06:48:25;;;;;;;16.23;11.85;;;38.90;27.50;;;;;;4996525;28;20030;-75
2022/08/16 06:50:51;;;;;;;8.90;4.47;;;39.40;26.00;;;;;;4992354;28;20022;-76
2022/08/16 06:53:18;;;;;;;6.05;3.55;;;39.60;26.30;;;;;;4992593;28;20034;-75
2022/08/16 06:55:44;;;;;;;3.67;3.03;;;40.40;24.90;;;;;;4992488;28;20500;-77
2022/08/16 06:58:10;;;;;;;8.60;6.97;;;40.40;25.10;;;;;;4992229;28;20117;-75
2022/08/16 07:00:37;;;;;;;10.80;6.40;;;40.70;24.70;;;;;;4991080;28;20026;-76
2022/08/16 07:03:06;;;;;;;7.68;5.65;;;40.80;24.90;;;;;;4992521;28;20441;-77
2022/08/16 07:05:32;;;;;;;10.73;6.47;;;41.00;24.30;;;;;;4990887;28;20400;-76
2022/08/16 07:07:58;;;;;;;9.85;5.88;;;40.80;24.10;;;;;;4993209;28;20033;-75
2022/08/16 07:10:24;;;;;;;5.90;3.03;;;40.60;24.80;;;;;;4998935;28;20384;-76
2022/08/16 07:12:50;;;;;;;6.25;4.22;;;40.60;24.30;;;;;;4990768;28;20560;-76
2022/08/16 07:15:17;;;;;;;7.95;3.85;;;40.80;24.60;;;;;;4990922;28;20101;-76
2022/08/16 07:17:44;;;;;;;4.97;3.90;;;40.80;24.30;;;;;;4999817;28;20030;-76
2022/08/16 07:20:11;;;;;;;3.38;2.60;;;40.70;24.30;;;;;;4991028;28;20026;-76
2022/08/16 07:22:38;;;;;;;6.40;4.43;;;40.70;24.30;;;;;;4992054;28;20030;-76
2022/08/16 07:25:06;;;;;;;6.07;3.35;;;41.20;23.80;;;;;;4992337;28;20030;-73
2022/08/16 07:27:33;;;;;;;10.07;8.48;;;41.50;23.70;;;;;;4992032;28;20492;-76
2022/08/16 07:29:58;;;;;;;27.85;19.90;;;41.60;23.10;;;;;;4991907;28;20034;-75
2022/08/16 07:32:25;;;;;;;5.10;3.20;;;42.00;23.20;;;;;;4991710;28;20061;-74
2022/08/16 07:34:51;;;;;;;3.88;2.65;;;41.70;23.40;;;;;;4992103;28;20027;-75
2022/08/16 07:37:17;;;;;;;7.57;3.80;;;41.50;22.90;;;;;;4991833;28;20037;-77
2022/08/16 07:39:42;;;;;;;6.95;3.88;;;41.20;23.70;;;;;;4992268;28;20579;-76
2022/08/16 07:42:08;;;;;;;6.82;4.97;;;41.20;23.60;;;;;;4991825;28;20038;-74
2022/08/16 07:44:33;;;;;;;5.60;3.85;;;40.80;23.60;;;;;;4991908;28;20499;-75
2022/08/16 07:46:59;;;;;;;6.03;3.75;;;40.40;24.20;;;;;;4991793;28;20037;-76
2022/08/16 07:49:28;;;;;;;6.38;4.43;;;40.30;24.30;;;;;;4991683;28;20058;-75
2022/08/16 07:51:53;;;;;;;11.60;6.60;;;39.90;24.50;;;;;;4991677;28;20113;-75
2022/08/16 07:54:19;;;;;;;4.63;3.65;;;40.00;24.40;;;;;;4991700;28;20101;-76
2022/08/16 07:56:47;;;;;;;6.50;3.38;;;39.50;24.90;;;;;;4991569;28;20031;-75
2022/08/16 07:59:13;;;;;;;4.72;3.70;;;39.10;25.50;;;;;;4991111;28;20037;-76
2022/08/16 08:01:38;;;;;;;5.95;4.65;;;40.00;24.70;;;;;;4991591;28;20018;-74
2022/08/16 08:04:04;;;;;;;5.45;2.67;;;39.90;24.80;;;;;;4991807;28;20023;-75
2022/08/16 08:06:31;;;;;;;4.40;2.72;;;39.80;24.40;;;;;;4991825;28;20027;-76
2022/08/16 08:08:58;;;;;;;3.03;2.08;;;40.50;24.00;;;;;;4991676;28;20388;-75
2022/08/16 08:11:24;;;;;;;4.63;2.72;;;40.40;24.10;;;;;;4993660;28;20023;-77
2022/08/16 08:13:52;;;;;;;5.97;2.83;;;40.40;24.50;;;;;;4995607;28;20033;-76
2022/08/16 08:16:20;;;;;;;8.25;4.10;;;40.80;23.70;;;;;;4995992;28;20030;-74
2022/08/16 08:18:47;;;;;;;2.75;2.03;;;40.90;23.50;;;;;;4995456;28;20026;-75
2022/08/16 08:21:13;;;;;;;5.55;2.60;;;40.90;23.20;;;;;;4995698;28;20023;-76
2022/08/16 08:23:39;;;;;;;3.80;2.15;;;40.30;23.60;;;;;;4994129;28;20132;-74
2022/08/16 08:26:05;;;;;;;5.13;1.92;;;39.70;24.30;;;;;;4993907;28;20014;-73
2022/08/16 08:28:31;;;;;;;6.32;3.58;;;39.20;24.20;;;;;;4995224;28;20117;-73
2022/08/16 08:30:58;;;;;;;6.57;3.80;;;38.10;26.20;;;;;;4995005;28;20034;-76
2022/08/16 08:33:24;;;;;;;5.32;3.13;;;38.30;26.00;;;;;;4995311;28;20023;-76
2022/08/16 08:35:51;;;;;;;6.10;2.63;;;38.40;26.30;;;;;;4995279;28;20022;-73
2022/08/16 08:38:17;;;;;;;7.45;4.45;;;38.90;25.60;;;;;;4994981;28;20373;-74
2022/08/16 08:40:48;;;;;;;10.35;5.78;;;39.40;25.00;;;;;;4994747;28;20029;-73
2022/08/16 08:43:16;;;;;;;3.53;1.90;;;40.20;24.10;;;;;;4995221;28;20022;-75
2022/08/16 08:45:42;;;;;;;4.10;2.10;;;40.60;23.60;;;;;;4993123;28;20846;-74
2022/08/16 08:48:08;;;;;;;4.13;2.25;;;39.40;24.20;;;;;;4994945;28;20030;-75
2022/08/16 08:50:33;;;;;;;4.07;3.15;;;38.70;25.30;;;;;;4993352;28;20029;-73
2022/08/16 08:53:00;;;;;;;5.05;2.28;;;38.60;25.90;;;;;;4994848;28;20026;-74
2022/08/16 08:55:26;;;;;;;3.65;3.22;;;37.90;26.20;;;;;;4994358;28;20019;-73
2022/08/16 08:57:53;;;;;;;4.72;2.80;;;38.40;25.90;;;;;;4994783;28;20568;-74
2022/08/16 09:00:22;;;;;;;6.85;2.75;;;38.00;26.40;;;;;;4995084;28;20373;-75
2022/08/16 09:02:51;;;;;;;7.68;2.08;;;38.30;25.80;;;;;;4994936;28;20041;-75
2022/08/16 09:05:19;;;;;;;4.45;2.42;;;37.40;26.00;;;;;;4994901;28;20026;-75
2022/08/16 09:07:45;;;;;;;6.18;2.60;;;37.00;27.20;;;;;;4994192;28;20034;-74
2022/08/16 09:10:11;;;;;;;4.10;2.20;;;36.40;27.50;;;;;;4995150;28;20026;-72
2022/08/16 09:12:38;;;;;;;5.53;2.60;;;36.40;28.10;;;;;;4994651;28;20397;-75
2022/08/16 09:15:10;;;;;;;7.95;2.40;;;37.10;27.60;;;;;;4994688;28;20022;-75
2022/08/16 09:17:36;;;;;;;3.50;2.58;;;37.40;27.30;;;;;;4994142;28;20030;-73
2022/08/16 09:20:02;;;;;;;7.47;3.15;;;36.90;27.40;;;;;;4994499;28;20026;-74
2022/08/16 09:22:36;;;;;;;4.75;2.33;;;36.90;27.60;;;;;;4992912;28;20019;-73
2022/08/16 09:25:10;;;;;;;4.15;2.03;;;36.80;27.80;;;;;;4994765;28;20034;-76
2022/08/16 09:27:36;;;;;;;2.33;2.13;;;36.50;27.50;;;;;;4992628;28;20554;-74
2022/08/16 09:30:04;;;;;;;5.60;4.40;;;36.70;27.50;;;;;;4994547;28;20042;-74
2022/08/16 09:32:30;;;;;;;471.85;418.95;;;36.90;27.70;;;;;;5016953;23;20133;-72
2022/08/16 09:34:56;;;;;;;273.73;241.73;;;36.30;29.00;;;;;;4994414;28;20447;-73
2022/08/16 09:37:22;;;;;;;22.90;17.90;;;35.50;31.60;;;;;;4995150;28;20852;-73
2022/08/16 09:39:47;;;;;;;385.90;303.40;;;35.30;29.70;;;;;;4995041;28;20110;-72
2022/08/16 09:42:14;;;;;;;109.00;90.35;;;35.40;31.80;;;;;;4993601;28;20113;-74
2022/08/16 09:44:40;;;;;;;224.95;189.93;;;35.30;31.10;;;;;;4994683;28;20057;-73
2022/08/16 09:47:06;;;;;;;215.70;186.35;;;35.30;32.50;;;;;;4994462;28;20038;-72
2022/08/16 09:49:31;;;;;;;5.97;3.08;;;35.20;33.00;;;;;;4993720;28;20407;-72
2022/08/16 09:51:57;;;;;;;5.88;2.80;;;34.40;30.00;;;;;;4995718;28;20049;-74
2022/08/16 09:54:25;;;;;;;100.18;78.88;;;32.90;32.40;;;;;;4995346;28;20022;-73
2022/08/16 09:56:51;;;;;;;13.40;9.00;;;32.70;35.20;;;;;;4994577;28;20105;-73
2022/08/16 09:59:17;;;;;;;4.65;3.28;;;32.90;32.70;;;;;;4993990;28;20037;-72
2022/08/16 10:01:43;;;;;;;7.30;3.30;;;32.60;33.10;;;;;;4993835;28;20023;-73
2022/08/16 10:04:10;;;;;;;8.80;4.88;;;32.30;33.10;;;;;;4993180;28;20077;-75
2022/08/16 10:06:36;;;;;;;5.47;2.60;;;32.00;33.10;;;;;;4994445;28;20026;-72
2022/08/16 10:09:08;;;;;;;3.95;2.35;;;31.20;34.40;;;;;;4991921;28;20033;-74
2022/08/16 10:14:19;;;;;;;2.85;2.40;;;31.20;35.10;;;;;;4992849;28;20084;-73
2022/08/16 10:16:44;;;;;;;6.78;2.50;;;31.30;33.90;;;;;;4992942;28;20027;-73
2022/08/16 10:19:11;;;;;;;11.77;7.43;;;30.90;34.50;;;;;;4992241;28;20037;-73
2022/08/16 10:21:38;;;;;;;7.03;3.58;;;31.40;35.30;;;;;;4991477;28;20026;-74
2022/08/16 10:24:04;;;;;;;16.05;12.18;;;31.90;33.70;;;;;;4992526;28;20069;-74
2022/08/16 10:26:32;;;;;;;7.10;4.75;;;32.10;34.50;;;;;;4992826;28;20041;-73
2022/08/16 10:28:58;;;;;;;5.30;3.00;;;32.60;33.50;;;;;;4992329;28;20019;-73
2022/08/16 10:31:25;;;;;;;7.00;2.60;;;32.70;32.90;;;;;;4992271;28;20037;-74
2022/08/16 10:33:51;;;;;;;15.30;9.10;;;32.60;32.80;;;;;;4992061;28;20481;-74
2022/08/16 10:36:17;;;;;;;11.75;4.05;;;32.40;34.20;;;;;;4990963;28;20023;-75
2022/08/16 10:38:42;;;;;;;7.07;3.70;;;32.10;33.90;;;;;;4992045;28;20077;-73
2022/08/16 10:41:09;;;;;;;4.95;3.55;;;32.00;33.50;;;;;;4992151;28;20014;-73
2022/08/16 10:43:36;;;;;;;6.18;3.97;;;32.00;33.20;;;;;;4990320;28;20050;-74
2022/08/16 10:46:03;;;;;;;2.90;2.58;;;32.10;33.80;;;;;;4993410;28;20026;-75
2022/08/16 10:48:29;;;;;;;6.78;3.95;;;31.90;33.80;;;;;;4995106;28;20113;-74
2022/08/16 10:50:57;;;;;;;9.45;4.70;;;31.20;35.00;;;;;;4991611;28;20110;-74
2022/08/16 10:53:23;;;;;;;7.30;4.13;;;31.60;35.30;;;;;;4991842;28;20489;-73
2022/08/16 10:55:49;;;;;;;6.38;2.60;;;32.00;34.60;;;;;;4991295;28;20110;-73
2022/08/16 10:58:15;;;;;;;4.55;2.63;;;31.90;33.20;;;;;;4990304;28;20022;-74
2022/08/16 11:00:42;;;;;;;5.78;2.50;;;31.30;34.30;;;;;;4989220;28;20026;-74
2022/08/16 11:03:08;;;;;;;5.88;2.88;;;30.70;35.40;;;;;;5000232;28;20026;-74
2022/08/16 11:05:37;;;;;;;7.22;2.88;;;30.00;36.40;;;;;;5003111;28;20036;-73
2022/08/16 11:08:04;;;;;;;3.47;3.03;;;29.90;36.80;;;;;;4991586;28;20026;-73
2022/08/16 11:10:34;;;;;;;6.93;2.67;;;29.90;37.60;;;;;;4997495;28;20022;-73
2022/08/16 11:13:00;;;;;;;4.05;2.35;;;30.00;37.20;;;;;;4992656;28;20073;-73
2022/08/16 11:15:28;;;;;;;5.25;2.72;;;30.20;37.00;;;;;;4992310;28;20030;-73
2022/08/16 11:17:54;;;;;;;6.70;3.90;;;30.50;36.30;;;;;;4992068;28;20026;-73
2022/08/16 11:20:21;;;;;;;3.80;2.60;;;31.00;36.00;;;;;;4992249;28;20064;-73
2022/08/16 11:22:48;;;;;;;3.63;2.90;;;31.20;35.30;;;;;;4990934;28;20539;-74
2022/08/16 11:25:27;;;;;;;3.72;2.63;;;31.40;34.90;;;;;;4992416;28;20037;-74
2022/08/16 11:27:54;;;;;;;5.15;2.90;;;30.90;35.40;;;;;;4992272;28;20121;-74
2022/08/16 11:30:20;;;;;;;4.78;2.58;;;30.30;36.40;;;;;;4990968;28;20026;-73
2022/08/16 11:32:46;;;;;;;3.97;2.80;;;30.20;36.80;;;;;;4992376;28;20153;-74
2022/08/16 11:35:15;;;;;;;8.35;2.80;;;30.30;36.50;;;;;;4992459;28;20058;-73
2022/08/16 11:37:44;;;;;;;6.97;3.00;;;30.40;36.60;;;;;;4992651;28;20109;-73
2022/08/16 11:40:10;;;;;;;4.93;3.67;;;30.50;37.30;;;;;;4992154;28;20026;-74
2022/08/16 11:42:36;;;;;;;5.70;3.20;;;30.50;37.60;;;;;;4992123;28;20475;-71
2022/08/16 11:45:01;;;;;;;5.85;2.78;;;30.80;36.30;;;;;;4991491;28;20080;-73
2022/08/16 11:47:27;;;;;;;4.85;2.70;;;30.60;36.00;;;;;;4989899;28;20026;-73
2022/08/16 11:49:53;;;;;;;4.63;2.95;;;30.40;36.20;;;;;;4992054;28;20029;-73
2022/08/16 11:52:18;;;;;;;3.92;2.67;;;30.00;37.30;;;;;;4991635;28;20395;-73
2022/08/16 11:54:45;;;;;;;5.88;2.80;;;29.70;37.50;;;;;;4990837;28;20019;-73
2022/08/16 11:57:11;;;;;;;5.57;3.33;;;29.50;37.70;;;;;;4991375;28;20467;-73
2022/08/16 11:59:37;;;;;;;6.38;3.13;;;29.10;38.00;;;;;;4992036;28;20018;-74
2022/08/16 12:02:07;;;;;;;4.85;2.67;;;29.20;37.90;;;;;;4991826;28;20022;-72
2022/08/16 12:04:34;;;;;;;3.15;2.85;;;29.10;38.20;;;;;;4992371;28;20026;-73
2022/08/16 12:07:01;;;;;;;4.28;2.85;;;28.90;38.40;;;;;;4992038;28;20022;-73
2022/08/16 12:09:28;;;;;;;3.25;2.60;;;29.10;38.50;;;;;;4992072;28;20029;-74
2022/08/16 12:11:55;;;;;;;3.33;2.83;;;29.40;38.50;;;;;;4992036;28;20102;-74
2022/08/16 12:14:21;;;;;;;3.85;2.63;;;29.70;37.20;;;;;;4991642;28;20497;-74
2022/08/16 12:16:46;;;;;;;5.80;2.80;;;29.80;36.50;;;;;;4992061;28;20296;-74
2022/08/16 12:19:12;;;;;;;6.03;2.90;;;29.90;36.70;;;;;;4991839;28;20034;-75
2022/08/16 12:21:38;;;;;;;4.03;2.67;;;30.10;36.30;;;;;;4991644;28;20407;-73
2022/08/16 12:24:05;;;;;;;3.55;2.75;;;30.20;36.00;;;;;;4990318;28;20024;-73
2022/08/16 12:26:32;;;;;;;2.92;2.30;;;30.10;36.20;;;;;;4990536;28;20026;-74
2022/08/16 12:28:57;;;;;;;3.55;3.08;;;30.40;36.30;;;;;;4989512;28;20026;-74
2022/08/16 12:31:24;;;;;;;3.55;2.75;;;30.50;36.40;;;;;;4989856;28;20049;-73
2022/08/16 12:33:51;;;;;;;9.05;3.08;;;30.60;35.70;;;;;;4991365;28;20030;-72
2022/08/16 12:36:16;;;;;;;3.03;2.53;;;30.70;35.10;;;;;;4991285;28;20485;-73
2022/08/16 12:38:42;;;;;;;7.32;2.90;;;30.50;35.40;;;;;;4991181;28;20061;-72
2022/08/16 12:41:08;;;;;;;3.30;3.00;;;30.70;35.40;;;;;;4978082;28;20042;-72